Max Strength — 9HA4087 — position and weather

sailwx.info

Track history (hours):
 
Tides and Currents Weather Stations Pressure Air Temp Water Temp Dewpoint Dewpoint Depression Visibility Wind Speed Wind Dir Waves Ship Positions

Max Strength

Last reported at 2018-Jan-22 00:49 UTC. Time now 2018-Jan-22 02:42 UTC.
Position N 30°25' W 009°38'.

Length 127 m; draft 5.9 m.

Type: Ship. MMSI: 249033000.

Date/timePositionNaut miles runAvg speedWind from/ knotsBaromVisibWave heightAir tempDewpointWater temp
2018-Jan-22 00:49N 30°25' W 009°38'4 1.0
2018-Jan-21 20:43N 30°26' W 009°43'0 0.1
2018-Jan-21 20:13N 30°26' W 009°43'0 0.0
2018-Jan-21 19:58N 30°26' W 009°43'0 0.0
2018-Jan-21 10:45N 30°26' W 009°43'2 5.6
2018-Jan-21 10:26N 30°24' W 009°44'510.9
2018-Jan-21 10:00N 30°27' W 009°49'611.7
2018-Jan-21 09:30N 30°31' W 009°55'4711.5
2018-Jan-21 05:25N 31°16' W 010°06'512.2
2018-Jan-21 05:00N 31°21' W 010°06'612.3
2018-Jan-21 04:30N 31°28' W 010°05'1412.3
2018-Jan-21 03:23N 31°40' W 009°60'712.2
2018-Jan-21 02:48N 31°47' W 009°57'1112.6
2018-Jan-21 01:57N 31°57' W 009°53'612.6
2018-Jan-21 01:29N 32°03' W 009°51'612.6
2018-Jan-21 01:00N 32°09' W 009°48'612.5
2018-Jan-21 00:29N 32°15' W 009°46'30412.2
2018-Jan-19 23:33N 35°58' W 005°36'011.0
2018-Jan-19 23:30N 35°58' W 005°36'510.8
2018-Jan-19 23:00N 35°60' W 005°29'5 9.9
2018-Jan-19 22:30N 36°03' W 005°24'611.4
2018-Jan-19 22:00N 36°08' W 005°24'1 2.8
2018-Jan-19 21:29N 36°08' W 005°26'0 0.0
2018-Jan-19 20:56N 36°08' W 005°26'0 0.0
2018-Jan-19 20:29N 36°08' W 005°26'0 0.0
2018-Jan-19 19:59N 36°08' W 005°26'0 0.0
2018-Jan-19 19:29N 36°08' W 005°26'0 0.0
2018-Jan-19 18:59N 36°08' W 005°26'0 0.0
2018-Jan-19 18:29N 36°08' W 005°26'0 0.0
2018-Jan-19 17:56N 36°08' W 005°26'0 0.0
2018-Jan-19 17:29N 36°08' W 005°26'0 0.0
2018-Jan-19 16:56N 36°08' W 005°26'0 0.0
2018-Jan-19 16:26N 36°08' W 005°26'0 0.0
2018-Jan-19 15:59N 36°08' W 005°26'0 0.0
2018-Jan-19 15:29N 36°08' W 005°26'0 0.0
2018-Jan-19 14:59N 36°08' W 005°26'0 0.0
2018-Jan-19 14:26N 36°08' W 005°26'0 0.0
2018-Jan-19 13:59N 36°08' W 005°26'0 0.0
2018-Jan-19 13:29N 36°08' W 005°26'0 0.0
2018-Jan-19 12:59N 36°08' W 005°26'0 0.0
2018-Jan-19 12:26N 36°08' W 005°26'0 0.0
2018-Jan-19 11:56N 36°08' W 005°26'0 0.0
2018-Jan-19 11:20N 36°08' W 005°26'0 0.0
2018-Jan-19 10:56N 36°08' W 005°26'0 0.0
2018-Jan-19 10:30N 36°08' W 005°26'1 3.1
2018-Jan-19 10:00N 36°09' W 005°25'2 3.1
2018-Jan-19 09:28N 36°10' W 005°23'0 0.0
2018-Jan-19 08:58N 36°10' W 005°23'0 0.0
2018-Jan-19 08:28N 36°10' W 005°23'0 0.0
2018-Jan-19 07:58N 36°10' W 005°23'0 0.0
2018-Jan-19 07:28N 36°10' W 005°23'0 0.0
2018-Jan-19 06:58N 36°10' W 005°23'0 0.0
2018-Jan-19 06:28N 36°10' W 005°23'0 0.0
2018-Jan-19 05:58N 36°10' W 005°23'0 0.0
2018-Jan-19 05:28N 36°10' W 005°23'0 0.0
2018-Jan-19 04:58N 36°10' W 005°23'0 0.1
2018-Jan-19 04:28N 36°10' W 005°23'0 0.0
2018-Jan-19 03:58N 36°10' W 005°23'0 0.0
2018-Jan-19 03:28N 36°10' W 005°23'0 0.0
2018-Jan-19 02:58N 36°10' W 005°23'0 0.0
2018-Jan-19 02:28N 36°10' W 005°23'1 1.9
2018-Jan-19 02:00N 36°09' W 005°24'3 5.1
2018-Jan-19 01:31N 36°06' W 005°23'2 4.9
2018-Jan-19 01:00N 36°04' W 005°22'1 1.6
2018-Jan-19 00:30N 36°04' W 005°21'1 1.5
2018-Jan-19 00:00N 36°05' W 005°21'0 0.8
2018-Jan-18 23:30N 36°04' W 005°21'0 0.6
2018-Jan-18 23:00N 36°05' W 005°21'2 3.7
2018-Jan-18 22:30N 36°04' W 005°23'5 9.5
2018-Jan-18 22:00N 35°59' W 005°24'612.4
2018-Jan-18 21:30N 35°57' W 005°31'712.3
2018-Jan-18 20:58N 35°55' W 005°39'18411.4
2018-Jan-18 04:50N 36°37' W 009°21'611.6
2018-Jan-18 04:21N 36°41' W 009°26'3811.6
2018-Jan-18 01:06N 37°16' W 009°42'211.9
2018-Jan-18 00:58N 37°18' W 009°43'  
Track history (hours):
 
Tides and Currents Weather Stations Pressure Air Temp Water Temp Dewpoint Dewpoint Depression Visibility Wind Speed Wind Dir Waves Ship Positions

Max Strength

Last reported at 2018-Jan-22 00:49 UTC. Time now 2018-Jan-22 02:42 UTC.
Position N 30°25' W 009°38'.

Length 127 m; draft 5.9 m.

Type: Ship. MMSI: 249033000.

Date/timePositionNaut miles runAvg speedWind from/ knotsBaromVisibWave heightAir tempDewpointWater temp
2018-Jan-22 00:49N 30°25' W 009°38'4 1.0
2018-Jan-21 20:43N 30°26' W 009°43'0 0.1
2018-Jan-21 20:13N 30°26' W 009°43'0 0.0
2018-Jan-21 19:58N 30°26' W 009°43'0 0.0
2018-Jan-21 10:45N 30°26' W 009°43'2 5.6
2018-Jan-21 10:26N 30°24' W 009°44'510.9
2018-Jan-21 10:00N 30°27' W 009°49'611.7
2018-Jan-21 09:30N 30°31' W 009°55'4711.5
2018-Jan-21 05:25N 31°16' W 010°06'512.2
2018-Jan-21 05:00N 31°21' W 010°06'612.3
2018-Jan-21 04:30N 31°28' W 010°05'1412.3
2018-Jan-21 03:23N 31°40' W 009°60'712.2
2018-Jan-21 02:48N 31°47' W 009°57'1112.6
2018-Jan-21 01:57N 31°57' W 009°53'612.6
2018-Jan-21 01:29N 32°03' W 009°51'612.6
2018-Jan-21 01:00N 32°09' W 009°48'612.5
2018-Jan-21 00:29N 32°15' W 009°46'30412.2
2018-Jan-19 23:33N 35°58' W 005°36'011.0
2018-Jan-19 23:30N 35°58' W 005°36'510.8
2018-Jan-19 23:00N 35°60' W 005°29'5 9.9
2018-Jan-19 22:30N 36°03' W 005°24'611.4
2018-Jan-19 22:00N 36°08' W 005°24'1 2.8
2018-Jan-19 21:29N 36°08' W 005°26'0 0.0
2018-Jan-19 20:56N 36°08' W 005°26'0 0.0
2018-Jan-19 20:29N 36°08' W 005°26'0 0.0
2018-Jan-19 19:59N 36°08' W 005°26'0 0.0
2018-Jan-19 19:29N 36°08' W 005°26'0 0.0
2018-Jan-19 18:59N 36°08' W 005°26'0 0.0
2018-Jan-19 18:29N 36°08' W 005°26'0 0.0
2018-Jan-19 17:56N 36°08' W 005°26'0 0.0
2018-Jan-19 17:29N 36°08' W 005°26'0 0.0
2018-Jan-19 16:56N 36°08' W 005°26'0 0.0
2018-Jan-19 16:26N 36°08' W 005°26'0 0.0
2018-Jan-19 15:59N 36°08' W 005°26'0 0.0
2018-Jan-19 15:29N 36°08' W 005°26'0 0.0
2018-Jan-19 14:59N 36°08' W 005°26'0 0.0
2018-Jan-19 14:26N 36°08' W 005°26'0 0.0
2018-Jan-19 13:59N 36°08' W 005°26'0 0.0
2018-Jan-19 13:29N 36°08' W 005°26'0 0.0
2018-Jan-19 12:59N 36°08' W 005°26'0 0.0
2018-Jan-19 12:26N 36°08' W 005°26'0 0.0
2018-Jan-19 11:56N 36°08' W 005°26'0 0.0
2018-Jan-19 11:20N 36°08' W 005°26'0 0.0
2018-Jan-19 10:56N 36°08' W 005°26'0 0.0
2018-Jan-19 10:30N 36°08' W 005°26'1 3.1
2018-Jan-19 10:00N 36°09' W 005°25'2 3.1
2018-Jan-19 09:28N 36°10' W 005°23'0 0.0
2018-Jan-19 08:58N 36°10' W 005°23'0 0.0
2018-Jan-19 08:28N 36°10' W 005°23'0 0.0
2018-Jan-19 07:58N 36°10' W 005°23'0 0.0
2018-Jan-19 07:28N 36°10' W 005°23'0 0.0
2018-Jan-19 06:58N 36°10' W 005°23'0 0.0
2018-Jan-19 06:28N 36°10' W 005°23'0 0.0
2018-Jan-19 05:58N 36°10' W 005°23'0 0.0
2018-Jan-19 05:28N 36°10' W 005°23'0 0.0
2018-Jan-19 04:58N 36°10' W 005°23'0 0.1
2018-Jan-19 04:28N 36°10' W 005°23'0 0.0
2018-Jan-19 03:58N 36°10' W 005°23'0 0.0
2018-Jan-19 03:28N 36°10' W 005°23'0 0.0
2018-Jan-19 02:58N 36°10' W 005°23'0 0.0
2018-Jan-19 02:28N 36°10' W 005°23'1 1.9
2018-Jan-19 02:00N 36°09' W 005°24'3 5.1
2018-Jan-19 01:31N 36°06' W 005°23'2 4.9
2018-Jan-19 01:00N 36°04' W 005°22'1 1.6
2018-Jan-19 00:30N 36°04' W 005°21'1 1.5
2018-Jan-19 00:00N 36°05' W 005°21'0 0.8
2018-Jan-18 23:30N 36°04' W 005°21'0 0.6
2018-Jan-18 23:00N 36°05' W 005°21'2 3.7
2018-Jan-18 22:30N 36°04' W 005°23'5 9.5
2018-Jan-18 22:00N 35°59' W 005°24'612.4
2018-Jan-18 21:30N 35°57' W 005°31'712.3
2018-Jan-18 20:58N 35°55' W 005°39'18411.4
2018-Jan-18 04:50N 36°37' W 009°21'611.6
2018-Jan-18 04:21N 36°41' W 009°26'3811.6
2018-Jan-18 01:06N 37°16' W 009°42'211.9
2018-Jan-18 00:58N 37°18' W 009°43'  

Dump ship's entire track history